createdAt,value
2019-01-30T00:01:14.537Z,97485.38
2019-01-30T00:03:47.119Z,97491.67
2019-01-30T00:06:19.150Z,97492.44
2019-01-30T00:08:51.164Z,97487.65
2019-01-30T00:11:25.285Z,97492.58
2019-01-30T00:14:00.210Z,97484.66
2019-01-30T00:16:37.760Z,97479.28
2019-01-30T00:19:14.057Z,97479.53
2019-01-30T00:21:52.595Z,97478.69
2019-01-30T00:24:26.437Z,97476.45
2019-01-30T00:27:01.596Z,97474.14
2019-01-30T00:29:37.859Z,97475.31
2019-01-30T00:32:20.851Z,97473.89
2019-01-30T00:34:58.889Z,97478.77
2019-01-30T00:37:33.272Z,97475.70
2019-01-30T00:40:09.783Z,97475.19
2019-01-30T00:42:43.230Z,97479.32
2019-01-30T00:45:20.714Z,97479.98
2019-01-30T00:47:56.852Z,97479.64
2019-01-30T00:50:31.559Z,97470.30
2019-01-30T00:53:08.508Z,97471.72
2019-01-30T00:55:42.552Z,97467.36
2019-01-30T00:58:24.784Z,97472.55
2019-01-30T01:01:02.677Z,97470.18
2019-01-30T01:03:36.811Z,97469.52
2019-01-30T01:06:11.335Z,97464.33
2019-01-30T01:08:49.092Z,97460.97
2019-01-30T01:11:23.702Z,97449.46
2019-01-30T01:13:59.324Z,97436.47
2019-01-30T01:16:37.193Z,97429.47
2019-01-30T01:19:14.306Z,97436.75
2019-01-30T01:21:52.484Z,97441.26
2019-01-30T01:24:27.838Z,97449.06
2019-01-30T01:27:02.541Z,97447.11
2019-01-30T01:32:31.254Z,97442.45
2019-01-30T01:35:07.843Z,97435.60
2019-01-30T01:37:42.615Z,97440.78
2019-01-30T01:40:17.378Z,97438.55
2019-01-30T01:42:51.678Z,97442.41
2019-01-30T01:45:30.124Z,97445.73
2019-01-30T01:48:05.064Z,97443.68
2019-01-30T01:50:38.864Z,97446.41
2019-01-30T01:53:13.345Z,97438.92
2019-01-30T01:55:49.485Z,97434.79
2019-01-30T01:58:25.408Z,97435.73
2019-01-30T02:01:01.404Z,97430.73
2019-01-30T02:03:37.129Z,97435.48
2019-01-30T02:06:18.636Z,97425.25
2019-01-30T02:09:01.394Z,97422.45
2019-01-30T02:11:36.822Z,97420.33
2019-01-30T02:14:13.203Z,97419.89
2019-01-30T02:16:46.713Z,97415.22
2019-01-30T02:19:20.697Z,97417.92
2019-01-30T02:21:55.974Z,97409.15
2019-01-30T02:24:29.324Z,97407.04
2019-01-30T02:27:03.367Z,97406.27
2019-01-30T02:29:37.165Z,97400.91
2019-01-30T02:32:12.638Z,97400.57
2019-01-30T02:34:48.347Z,97393.23
2019-01-30T02:37:25.627Z,97390.50
2019-01-30T02:40:05.822Z,97374.51
2019-01-30T02:42:40.104Z,97372.28
2019-01-30T02:45:19.374Z,97376.44
2019-01-30T02:47:54.115Z,97376.80
2019-01-30T02:50:29.069Z,97372.27
2019-01-30T02:53:05.457Z,97365.36
2019-01-30T02:55:56.064Z,97360.17
2019-01-30T02:58:28.036Z,97347.04
2019-01-30T03:01:00.898Z,97340.10
2019-01-30T03:03:32.763Z,97331.30
2019-01-30T03:06:04.708Z,97326.37
2019-01-30T03:08:36.596Z,97329.51
2019-01-30T03:11:08.701Z,97332.05
2019-01-30T03:13:40.605Z,97329.27
2019-01-30T03:16:12.998Z,97325.17
2019-01-30T03:18:44.870Z,97318.22
2019-01-30T03:21:16.904Z,97314.27
2019-01-30T03:23:48.759Z,97309.11
2019-01-30T03:26:20.566Z,97308.31
2019-01-30T03:28:52.244Z,97315.39
2019-01-30T03:31:24.027Z,97315.72
2019-01-30T03:33:55.756Z,97315.34
2019-01-30T03:36:27.470Z,97320.96
2019-01-30T03:38:59.217Z,97318.22
2019-01-30T03:41:31.077Z,97316.78
2019-01-30T03:44:03.305Z,97311.56
2019-01-30T03:46:34.898Z,97313.27
2019-01-30T03:49:07.108Z,97312.95
2019-01-30T03:51:38.630Z,97321.22
2019-01-30T03:54:10.591Z,97314.05
2019-01-30T03:56:42.354Z,97321.84
2019-01-30T03:59:13.964Z,97322.75
2019-01-30T04:01:45.728Z,97321.98
2019-01-30T04:04:17.495Z,97326.70
2019-01-30T04:06:49.174Z,97326.70
2019-01-30T04:09:20.881Z,97329.41
2019-01-30T04:11:52.499Z,97323.64
2019-01-30T04:14:24.054Z,97321.34
2019-01-30T04:16:57.287Z,97323.64
2019-01-30T04:19:28.990Z,97319.44
2019-01-30T04:22:00.678Z,97322.00
2019-01-30T04:24:32.283Z,97319.73
2019-01-30T04:27:04.005Z,97308.20
2019-01-30T04:29:36.466Z,97305.64
2019-01-30T04:32:08.141Z,97310.94
2019-01-30T04:34:39.933Z,97303.09
2019-01-30T04:37:11.802Z,97301.16
2019-01-30T04:39:43.645Z,97295.20
2019-01-30T04:42:15.349Z,97292.10
2019-01-30T04:44:47.056Z,97291.38
2019-01-30T04:47:37.444Z,97281.15
2019-01-30T04:50:09.154Z,97286.08
2019-01-30T04:52:40.770Z,97280.84
2019-01-30T04:55:13.182Z,97280.70
2019-01-30T04:57:45.112Z,97278.55
2019-01-30T05:00:20.638Z,97278.91
2019-01-30T05:02:52.452Z,97279.30
2019-01-30T05:05:24.234Z,97278.03
2019-01-30T05:07:56.205Z,97280.58
2019-01-30T05:10:27.802Z,97272.00
2019-01-30T05:12:59.648Z,97277.00
2019-01-30T05:15:32.048Z,97280.32
2019-01-30T05:18:03.923Z,97278.09
2019-01-30T05:20:35.581Z,97271.63
2019-01-30T05:23:07.432Z,97268.48
2019-01-30T05:25:39.940Z,97276.20
2019-01-30T05:28:12.860Z,97272.61
2019-01-30T05:31:04.953Z,97273.33
2019-01-30T05:33:36.699Z,97275.30
2019-01-30T05:36:08.447Z,97276.42
2019-01-30T05:38:40.227Z,97271.70
2019-01-30T05:41:12.403Z,97271.63
2019-01-30T05:43:44.397Z,97262.99
2019-01-30T05:46:18.809Z,97268.27
2019-01-30T05:48:50.728Z,97262.20
2019-01-30T05:51:22.448Z,97270.72
2019-01-30T05:53:54.404Z,97274.11
2019-01-30T05:56:26.358Z,97275.06
2019-01-30T05:58:58.281Z,97271.43
2019-01-30T06:01:30.536Z,97267.20
2019-01-30T06:04:03.191Z,97263.44
2019-01-30T06:06:35.259Z,97262.59
2019-01-30T06:09:09.180Z,97258.40
2019-01-30T06:11:59.825Z,97258.00
2019-01-30T06:14:31.468Z,97252.37
2019-01-30T06:17:03.125Z,97254.80
2019-01-30T06:19:34.710Z,97259.33
2019-01-30T06:22:07.112Z,97251.97
2019-01-30T06:24:38.811Z,97254.77
2019-01-30T06:27:10.704Z,97249.53
2019-01-30T06:29:42.477Z,97250.89
2019-01-30T06:32:21.761Z,97246.33
2019-01-30T06:34:48.114Z,97246.20
2019-01-30T06:37:20.326Z,97244.09
2019-01-30T06:39:52.257Z,97239.33
2019-01-30T06:42:24.018Z,97250.17
2019-01-30T06:44:55.677Z,97247.13
2019-01-30T06:47:27.385Z,97243.98
2019-01-30T06:49:59.168Z,97244.45
2019-01-30T06:52:31.021Z,97248.48
2019-01-30T06:55:02.927Z,97248.20
2019-01-30T06:57:35.229Z,97246.52
2019-01-30T07:00:17.842Z,97234.50
2019-01-30T07:02:49.612Z,97240.61
2019-01-30T07:05:21.596Z,97247.51
2019-01-30T07:07:53.440Z,97247.03
2019-01-30T07:10:30.991Z,97250.99
2019-01-30T07:13:02.858Z,97244.31
2019-01-30T07:15:35.226Z,97245.96
2019-01-30T07:18:06.974Z,97245.21
2019-01-30T07:20:38.782Z,97239.25
2019-01-30T07:23:10.669Z,97244.23
2019-01-30T07:25:42.435Z,97245.26
2019-01-30T07:28:15.240Z,97236.28
2019-01-30T07:30:47.334Z,97230.31
2019-01-30T07:33:19.139Z,97234.23
2019-01-30T07:35:51.054Z,97229.09
2019-01-30T07:38:23.080Z,97211.69
2019-01-30T07:40:55.442Z,97222.71
2019-01-30T07:43:27.227Z,97225.66
2019-01-30T07:45:59.002Z,97230.41
2019-01-30T07:48:30.643Z,97229.16
2019-01-30T07:51:02.613Z,97227.67
2019-01-30T07:53:34.494Z,97234.15
2019-01-30T07:56:06.061Z,97238.21
2019-01-30T07:58:37.773Z,97240.37
2019-01-30T08:01:09.522Z,97235.64
2019-01-30T08:03:41.300Z,97245.05
2019-01-30T08:06:13.144Z,97245.38
2019-01-30T08:08:45.129Z,97248.89
2019-01-30T08:11:17.147Z,97251.78
2019-01-30T08:13:49.356Z,97248.20
2019-01-30T08:16:21.840Z,97239.30
2019-01-30T08:18:53.619Z,97241.84
2019-01-30T08:21:27.989Z,97237.62
2019-01-30T08:23:59.497Z,97238.84
2019-01-30T08:26:32.184Z,97229.61
2019-01-30T08:29:04.124Z,97231.80
2019-01-30T08:31:36.251Z,97225.89
2019-01-30T08:34:08.131Z,97220.80
2019-01-30T08:36:39.994Z,97215.47
2019-01-30T08:39:11.896Z,97213.16
2019-01-30T08:41:43.810Z,97212.30
2019-01-30T08:44:15.795Z,97215.73
2019-01-30T08:46:47.587Z,97211.31
2019-01-30T08:49:19.349Z,97207.68
2019-01-30T08:51:51.349Z,97212.52
2019-01-30T08:54:23.496Z,97212.90
2019-01-30T08:56:55.510Z,97215.12
2019-01-30T08:59:27.365Z,97207.75
2019-01-30T09:01:59.236Z,97202.29
2019-01-30T09:04:31.384Z,97204.03
2019-01-30T09:07:03.081Z,97200.34
2019-01-30T09:09:35.072Z,97196.58
2019-01-30T09:12:07.006Z,97196.86
2019-01-30T09:14:38.659Z,97195.81
2019-01-30T09:17:10.592Z,97199.30
2019-01-30T09:19:42.617Z,97192.50
2019-01-30T09:22:14.323Z,97185.90
2019-01-30T09:24:46.191Z,97182.20
2019-01-30T09:27:17.995Z,97183.03
2019-01-30T09:29:49.906Z,97181.52
2019-01-30T09:32:21.663Z,97181.86
2019-01-30T09:34:53.872Z,97183.48
2019-01-30T09:37:27.285Z,97180.84
2019-01-30T09:39:59.540Z,97173.20
2019-01-30T09:42:34.006Z,97166.52
2019-01-30T09:45:06.606Z,97171.25
2019-01-30T09:47:38.302Z,97161.79
2019-01-30T09:50:13.448Z,97160.17
2019-01-30T09:52:45.206Z,97156.58
2019-01-30T09:55:17.251Z,97161.88
2019-01-30T09:57:49.303Z,97158.94
2019-01-30T10:00:33.627Z,97157.86
2019-01-30T10:03:05.737Z,97157.92
2019-01-30T10:05:37.587Z,97154.20
2019-01-30T10:08:10.174Z,97152.98
2019-01-30T10:10:42.595Z,97149.25
2019-01-30T10:13:14.692Z,97137.94
2019-01-30T10:15:48.073Z,97138.94
2019-01-30T10:18:19.673Z,97136.84
2019-01-30T10:20:52.789Z,97125.45
2019-01-30T10:23:24.869Z,97128.03
2019-01-30T10:25:56.744Z,97120.76
2019-01-30T10:28:28.617Z,97117.39
2019-01-30T10:31:00.390Z,97116.30
2019-01-30T10:33:32.341Z,97113.39
2019-01-30T10:36:04.256Z,97106.81
2019-01-30T10:38:36.084Z,97106.61
2019-01-30T10:41:08.206Z,97107.78
2019-01-30T10:43:40.349Z,97111.76
2019-01-30T10:46:12.395Z,97100.27
2019-01-30T10:48:44.322Z,97096.45
2019-01-30T10:51:16.244Z,97098.13
2019-01-30T10:53:48.614Z,97085.73
2019-01-30T10:56:20.407Z,97085.01
2019-01-30T10:58:52.897Z,97083.21
2019-01-30T11:01:24.888Z,97071.20
2019-01-30T11:03:57.640Z,97063.38
2019-01-30T11:06:29.307Z,97056.64
2019-01-30T11:09:01.088Z,97051.73
2019-01-30T11:11:36.094Z,97047.16
2019-01-30T11:14:08.658Z,97051.89
2019-01-30T11:16:40.653Z,97043.91
2019-01-30T11:19:12.670Z,97044.13
2019-01-30T11:21:44.482Z,97049.66
2019-01-30T11:24:16.344Z,97047.62
2019-01-30T11:26:48.154Z,97037.78
2019-01-30T11:29:19.918Z,97031.48
2019-01-30T11:31:52.107Z,97021.48
2019-01-30T11:34:24.043Z,97020.11
2019-01-30T11:36:55.896Z,97017.77
2019-01-30T11:39:27.857Z,97012.00
2019-01-30T11:41:59.604Z,97008.22
2019-01-30T11:44:32.453Z,97012.05
2019-01-30T11:47:04.152Z,97006.13
2019-01-30T11:49:36.144Z,96996.13
2019-01-30T11:52:07.927Z,96994.25
2019-01-30T11:54:39.860Z,96977.83
2019-01-30T11:57:11.825Z,96976.20
2019-01-30T11:59:43.608Z,96967.49
2019-01-30T12:02:15.609Z,96972.66
2019-01-30T12:04:47.452Z,96957.15
2019-01-30T12:07:19.247Z,96947.61
2019-01-30T12:09:50.998Z,96935.15
2019-01-30T12:12:22.971Z,96923.30
2019-01-30T12:14:56.070Z,96923.09
2019-01-30T12:17:27.880Z,96915.80
2019-01-30T12:19:59.535Z,96899.36
2019-01-30T12:22:31.260Z,96906.31
2019-01-30T12:25:03.114Z,96905.13
2019-01-30T12:27:35.252Z,96885.84
2019-01-30T12:30:14.248Z,96877.98
2019-01-30T12:32:46.260Z,96868.00
2019-01-30T12:35:18.140Z,96854.81
2019-01-30T12:37:49.798Z,96858.59
2019-01-30T12:40:22.789Z,96853.06
2019-01-30T12:42:54.981Z,96810.51
2019-01-30T12:45:35.048Z,96822.75
2019-01-30T12:48:10.634Z,96830.52
2019-01-30T12:50:41.962Z,96834.75
2019-01-30T12:53:15.248Z,96844.98
2019-01-30T12:55:47.331Z,96835.23
2019-01-30T12:58:19.383Z,96827.36
2019-01-30T13:00:51.391Z,96813.13
2019-01-30T13:03:23.310Z,96824.98
2019-01-30T13:05:55.106Z,96811.46
2019-01-30T13:08:27.382Z,96793.27
2019-01-30T13:10:58.997Z,96785.50
2019-01-30T13:13:32.427Z,96786.30
2019-01-30T13:16:05.280Z,96783.02
2019-01-30T13:18:38.145Z,96780.98
2019-01-30T13:21:10.050Z,96768.99
2019-01-30T13:23:42.051Z,96743.52
2019-01-30T13:26:14.137Z,96746.80
2019-01-30T13:28:46.430Z,96749.26
2019-01-30T13:31:18.526Z,96730.12
2019-01-30T13:33:51.027Z,96736.14
2019-01-30T13:36:22.878Z,96748.96
2019-01-30T13:38:55.993Z,96722.12
2019-01-30T13:41:28.018Z,96723.29
2019-01-30T13:44:04.364Z,96719.17
2019-01-30T13:46:36.490Z,96721.13
2019-01-30T13:49:23.192Z,96711.84
2019-01-30T13:52:02.135Z,96705.93
2019-01-30T13:54:46.804Z,96719.53
2019-01-30T13:57:33.953Z,96705.05
2019-01-30T14:00:29.556Z,96714.77
2019-01-30T14:03:21.925Z,96713.81
2019-01-30T14:06:07.511Z,96723.72
2019-01-30T14:08:44.213Z,96698.48
2019-01-30T14:11:17.108Z,96715.94
2019-01-30T14:13:52.910Z,96766.69
2019-01-30T14:16:25.352Z,96730.27
2019-01-30T14:18:58.178Z,96755.91
2019-01-30T14:21:31.176Z,96757.45
2019-01-30T14:24:03.401Z,96762.87
2019-01-30T14:26:35.569Z,96763.55
2019-01-30T14:29:08.953Z,96769.55
2019-01-30T14:31:40.854Z,96775.89
2019-01-30T14:34:13.763Z,96774.11
2019-01-30T14:36:46.096Z,96771.19
2019-01-30T14:39:19.261Z,96776.23
2019-01-30T14:41:51.348Z,96786.67
2019-01-30T14:44:24.201Z,96787.71
2019-01-30T14:46:56.218Z,96791.71
2019-01-30T14:49:30.834Z,96802.04
2019-01-30T14:52:02.785Z,96808.95
2019-01-30T14:54:35.640Z,96811.78
2019-01-30T14:57:07.775Z,96801.18
2019-01-30T14:59:39.937Z,96800.25
2019-01-30T15:02:12.686Z,96782.86
2019-01-30T15:04:46.116Z,96772.53
2019-01-30T15:07:28.386Z,96773.73
2019-01-30T15:09:51.597Z,96772.78
2019-01-30T15:12:23.555Z,96775.23
2019-01-30T15:14:55.638Z,96795.05
2019-01-30T15:17:27.748Z,96787.13
2019-01-30T15:19:59.582Z,96779.73
2019-01-30T15:22:31.807Z,96780.22
2019-01-30T15:25:04.296Z,96763.19
2019-01-30T15:27:37.247Z,96761.55
2019-01-30T15:30:13.413Z,96747.56
2019-01-30T15:32:46.618Z,96737.61
2019-01-30T15:35:18.784Z,96728.33
2019-01-30T15:37:52.263Z,96731.03
2019-01-30T15:40:27.450Z,96742.07
2019-01-30T15:42:59.961Z,96744.38
2019-01-30T15:45:32.292Z,96752.09
2019-01-30T15:48:07.585Z,96764.38
2019-01-30T15:50:41.125Z,96767.58
2019-01-30T15:53:17.963Z,96777.32
2019-01-30T15:55:49.882Z,96787.18
2019-01-30T15:58:22.270Z,96777.44
2019-01-30T16:01:30.031Z,96785.97
2019-01-30T16:04:06.092Z,96784.17
2019-01-30T16:06:37.946Z,96792.16
2019-01-30T16:09:11.991Z,96786.76
2019-01-30T16:11:44.163Z,96772.36
2019-01-30T16:14:18.564Z,96778.94
2019-01-30T16:16:50.855Z,96780.56
2019-01-30T16:19:22.924Z,96782.09
2019-01-30T16:21:56.352Z,96780.76
2019-01-30T16:24:28.624Z,96790.73
2019-01-30T16:27:00.757Z,96786.16
2019-01-30T16:29:33.708Z,96792.36
2019-01-30T16:32:06.400Z,96795.66
2019-01-30T16:34:38.845Z,96798.28
2019-01-30T16:37:10.578Z,96801.53
2019-01-30T16:39:43.367Z,96803.31
2019-01-30T16:42:16.249Z,96794.61
2019-01-30T16:44:48.686Z,96794.23
2019-01-30T16:47:21.413Z,96797.65
2019-01-30T16:49:55.247Z,96794.36
2019-01-30T16:52:28.435Z,96804.34
2019-01-30T16:55:00.860Z,96804.11
2019-01-30T16:57:32.723Z,96801.66
2019-01-30T17:00:05.503Z,96798.16
2019-01-30T17:02:37.531Z,96794.05
2019-01-30T17:05:12.842Z,96800.08
2019-01-30T17:07:46.110Z,96801.20
2019-01-30T17:10:18.596Z,96802.03
2019-01-30T17:12:51.479Z,96804.82
2019-01-30T17:15:28.406Z,96802.55
2019-01-30T17:18:00.862Z,96809.45
2019-01-30T17:20:36.361Z,96807.11
2019-01-30T17:23:08.543Z,96810.16
2019-01-30T17:25:41.408Z,96807.64
2019-01-30T17:28:14.201Z,96808.69
2019-01-30T17:31:00.419Z,96815.72
2019-01-30T17:33:32.828Z,96815.25
2019-01-30T17:36:05.212Z,96821.77
2019-01-30T17:38:38.753Z,96821.88
2019-01-30T17:41:10.801Z,96828.32
2019-01-30T17:43:43.531Z,96827.03
2019-01-30T17:46:16.293Z,96824.86
2019-01-30T17:48:48.949Z,96826.29
2019-01-30T17:51:21.710Z,96825.91
2019-01-30T17:53:54.888Z,96822.61
2019-01-30T17:56:26.749Z,96828.16
2019-01-30T17:58:59.282Z,96824.08
2019-01-30T18:01:32.614Z,96831.33
2019-01-30T18:04:04.863Z,96838.42
2019-01-30T18:06:37.295Z,96842.54
2019-01-30T18:09:11.627Z,96846.81
2019-01-30T18:11:44.053Z,96845.49
2019-01-30T18:14:19.157Z,96848.72
2019-01-30T18:16:51.075Z,96849.30
2019-01-30T18:19:22.945Z,96850.47
2019-01-30T18:21:55.050Z,96856.48
2019-01-30T18:24:27.051Z,96856.16
2019-01-30T18:26:59.606Z,96859.38
2019-01-30T18:29:31.469Z,96856.98
2019-01-30T18:32:03.387Z,96862.03
2019-01-30T18:34:37.003Z,96866.36
2019-01-30T18:37:08.983Z,96870.47
2019-01-30T18:39:42.031Z,96865.89
2019-01-30T18:42:14.212Z,96868.48
2019-01-30T18:44:47.185Z,96874.81
2019-01-30T18:47:19.167Z,96869.90
2019-01-30T18:49:51.823Z,96870.24
2019-01-30T18:52:24.096Z,96863.83
2019-01-30T18:54:56.201Z,96871.13
2019-01-30T18:57:28.063Z,96868.63
2019-01-30T19:00:00.217Z,96867.66
2019-01-30T19:02:32.264Z,96864.75
2019-01-30T19:05:04.244Z,96866.16
2019-01-30T19:07:36.505Z,96872.73
2019-01-30T19:10:13.229Z,96876.50
2019-01-30T19:12:45.748Z,96878.61
2019-01-30T19:15:21.463Z,96873.45
2019-01-30T19:17:53.859Z,96873.08
2019-01-30T19:20:38.770Z,96875.31
2019-01-30T19:23:11.050Z,96873.08
2019-01-30T19:25:44.557Z,96872.49
2019-01-30T19:28:17.912Z,96866.99
2019-01-30T19:30:53.678Z,96867.57
2019-01-30T19:33:25.713Z,96868.95
2019-01-30T19:35:58.465Z,96866.63
2019-01-30T19:38:32.104Z,96870.03
2019-01-30T19:41:05.511Z,96862.88
2019-01-30T19:43:37.418Z,96871.19
2019-01-30T19:46:11.029Z,96870.36
2019-01-30T19:48:43.235Z,96869.89
2019-01-30T19:51:17.672Z,96875.00
2019-01-30T19:53:49.448Z,96871.81
2019-01-30T19:56:22.632Z,96879.30
2019-01-30T19:58:55.408Z,96883.50
2019-01-30T20:01:35.912Z,96878.36
2019-01-30T20:04:02.896Z,96872.59
2019-01-30T20:06:35.683Z,96877.64
2019-01-30T20:09:17.583Z,96881.05
2019-01-30T20:11:52.226Z,96881.95
2019-01-30T20:14:25.005Z,96887.69
2019-01-30T20:16:58.856Z,96884.53
2019-01-30T20:19:32.418Z,96896.52
2019-01-30T20:22:04.837Z,96899.23
2019-01-30T20:24:37.398Z,96901.00
2019-01-30T20:27:11.289Z,96903.52
2019-01-30T20:29:44.343Z,96910.67
2019-01-30T20:32:17.042Z,96908.21
2019-01-30T20:34:49.304Z,96913.72
2019-01-30T20:37:32.360Z,96917.70
2019-01-30T20:40:05.493Z,96928.61
2019-01-30T20:42:40.751Z,96928.14
2019-01-30T20:45:14.863Z,96938.81
2019-01-30T20:47:50.614Z,96941.13
2019-01-30T20:50:27.226Z,96948.16
2019-01-30T20:52:59.897Z,96955.09
2019-01-30T20:55:35.882Z,96949.69
2019-01-30T20:58:08.537Z,96956.59
2019-01-30T21:00:41.437Z,96960.20
2019-01-30T21:03:15.250Z,96964.42
2019-01-30T21:05:47.789Z,96966.11
2019-01-30T21:08:22.984Z,96969.38
2019-01-30T21:10:56.592Z,96980.13
2019-01-30T21:13:29.510Z,96980.81
2019-01-30T21:16:03.806Z,96987.77
2019-01-30T21:18:38.902Z,96995.43
2019-01-30T21:21:11.567Z,96990.05
2019-01-30T21:23:43.621Z,96996.66
2019-01-30T21:26:18.881Z,97001.56
2019-01-30T21:28:51.099Z,97004.58
2019-01-30T21:31:23.191Z,97008.70
2019-01-30T21:33:55.987Z,97011.91
2019-01-30T21:36:29.027Z,97013.31
2019-01-30T21:39:01.496Z,97018.67
2019-01-30T21:41:33.468Z,97020.72
2019-01-30T21:44:05.608Z,97018.03
2019-01-30T21:46:37.700Z,97027.31
2019-01-30T21:49:09.825Z,97021.03
2019-01-30T21:51:42.477Z,97027.30
2019-01-30T21:54:15.214Z,97026.52
2019-01-30T21:56:49.153Z,97032.39
2019-01-30T21:59:21.421Z,97037.54
2019-01-30T22:01:53.918Z,97046.55
2019-01-30T22:04:27.844Z,97044.09
2019-01-30T22:07:00.162Z,97047.90
2019-01-30T22:09:33.114Z,97059.67
2019-01-30T22:12:05.881Z,97065.95
2019-01-30T22:14:38.517Z,97063.77
2019-01-30T22:17:11.511Z,97057.84
2019-01-30T22:19:43.425Z,97068.88
2019-01-30T22:22:15.278Z,97073.58
2019-01-30T22:24:48.969Z,97070.56
2019-01-30T22:27:21.406Z,97081.98
2019-01-30T22:29:53.446Z,97083.64
2019-01-30T22:32:25.280Z,97078.60
2019-01-30T22:34:57.805Z,97083.02
2019-01-30T22:37:29.904Z,97083.93
2019-01-30T22:40:02.449Z,97088.73
2019-01-30T22:42:34.175Z,97084.55
2019-01-30T22:45:08.395Z,97093.95
2019-01-30T22:47:40.212Z,97089.46
2019-01-30T22:50:14.766Z,97088.34
2019-01-30T22:52:46.923Z,97101.70
2019-01-30T22:55:23.009Z,97107.48
2019-01-30T22:57:54.933Z,97113.73
2019-01-30T23:01:04.908Z,97123.75
2019-01-30T23:04:19.416Z,97131.30
2019-01-30T23:07:45.619Z,97132.48
2019-01-30T23:11:07.398Z,97137.64
2019-01-30T23:14:06.421Z,97144.25
2019-01-30T23:17:54.654Z,97139.62
2019-01-30T23:20:40.897Z,97149.57
2019-01-30T23:24:19.733Z,97144.88
2019-01-30T23:27:16.409Z,97149.57
2019-01-30T23:30:33.309Z,97159.31
2019-01-30T23:33:53.320Z,97157.09
2019-01-30T23:37:11.102Z,97156.18
2019-01-30T23:40:24.080Z,97156.91
2019-01-30T23:43:42.884Z,97160.32
2019-01-30T23:47:23.178Z,97163.14
2019-01-30T23:50:52.481Z,97167.01
2019-01-30T23:54:16.409Z,97165.37
2019-01-30T23:57:51.990Z,97173.55
